PWSweather.com
Personal Weather Stations
Station Observations
KTXPLANO60
Highlands Of Russell Park, Plano, TX 75025

Highlands Of Russell ParkPlano, TX 75025

Lat: 33.10431671, Lon: -96.75176239

Elevation: 761

Station Type: Davis Wireless VP2 Plus

http://www.planoweather.com

High Low Average
Temperature 55.8°F13.2°C 50.8°F10.4°C 52.4°F11.3°C
Dew Point 50.7°F10.4°C 45.0°F7.2°C 48.0°F8.9°C
Winds 8.1 mph 13.0 kmh Calm Calm 4.0 mph SE6.4 kmh SE
Wind Gusts 13.8 mph22.2 kmh -- 6.0 mph9.7 kmh
Humidity 92% 68% 85%
Pressure 30.37 in1028.4 mb 30.23 in1023.7 mb -
Precipitation 0.36 in9.1 mm - -
Hour Temp Dew Point Humidity Winds Wind Gusts Pressure Precip Precip Rate Daily Precip Total
12:00 AM 51.4°F10.8°C 47.4°F8.6°C 86% 4.6 mph N7.4 kmh N 4.6 mph7.4 kmh 30.26 in1024.7 mb - 0.00 in0.0 mm 0.00 in0.0 mm
12:10 AM 51.5°F10.8°C 47.1°F8.4°C 85% 5.8 mph NNE9.3 kmh NNE 8.1 mph13.0 kmh 30.26 in1024.7 mb - 0.00 in0.0 mm 0.00 in0.0 mm
12:20 AM 51.5°F10.8°C 47.5°F8.6°C 86% 3.5 mph NNE5.6 kmh NNE 5.8 mph9.3 kmh 30.26 in1024.7 mb - 0.00 in0.0 mm 0.00 in0.0 mm
12:30 AM 51.6°F10.9°C 47.5°F8.6°C 86% 3.5 mph N5.6 kmh N 4.6 mph7.4 kmh 30.26 in1024.7 mb - 0.00 in0.0 mm 0.00 in0.0 mm
12:40 AM 51.5°F10.8°C 47.5°F8.6°C 86% 2.3 mph NNE3.7 kmh NNE 3.5 mph5.6 kmh 30.25 in1024.4 mb - 0.00 in0.0 mm 0.00 in0.0 mm
12:50 AM 51.6°F10.9°C 47.5°F8.6°C 86% 3.5 mph N5.6 kmh N 4.6 mph7.4 kmh 30.25 in1024.4 mb - 0.00 in0.0 mm 0.00 in0.0 mm
01:00 AM 51.6°F10.9°C 47.9°F8.8°C 87% 4.6 mph NNE7.4 kmh NNE 6.9 mph11.1 kmh 30.24 in1024.0 mb - 0.00 in0.0 mm 0.00 in0.0 mm
01:10 AM 51.5°F10.8°C 47.8°F8.8°C 87% 4.6 mph NNE7.4 kmh NNE 6.9 mph11.1 kmh 30.24 in1024.0 mb - 0.00 in0.0 mm 0.00 in0.0 mm
01:20 AM 51.5°F10.8°C 47.8°F8.8°C 87% 3.5 mph NNE5.6 kmh NNE 4.6 mph7.4 kmh 30.25 in1024.4 mb - 0.00 in0.0 mm 0.00 in0.0 mm
01:30 AM 51.5°F10.8°C 47.8°F8.8°C 87% 2.3 mph NNE3.7 kmh NNE 3.5 mph5.6 kmh 30.25 in1024.4 mb - 0.00 in0.0 mm 0.00 in0.0 mm
01:40 AM 51.6°F10.9°C 47.9°F8.8°C 87% 4.6 mph NNE7.4 kmh NNE 6.9 mph11.1 kmh 30.24 in1024.0 mb - 0.00 in0.0 mm 0.00 in0.0 mm
01:50 AM 51.5°F10.8°C 47.8°F8.8°C 87% 4.6 mph N7.4 kmh N 9.2 mph14.8 kmh 30.24 in1024.0 mb - 0.00 in0.0 mm 0.00 in0.0 mm
02:00 AM 51.4°F10.8°C 48.0°F8.9°C 88% 4.6 mph N7.4 kmh N 8.1 mph13.0 kmh 30.24 in1024.0 mb - 0.00 in0.0 mm 0.00 in0.0 mm
02:10 AM 51.2°F10.7°C 47.8°F8.8°C 88% 4.6 mph NNE7.4 kmh NNE 9.2 mph14.8 kmh 30.24 in1024.0 mb - 0.01 in0.3 mm 0.01 in0.3 mm
02:20 AM 51.0°F10.6°C 47.8°F8.8°C 89% 6.9 mph N11.1 kmh N 10.4 mph16.7 kmh 30.23 in1023.7 mb - 0.00 in0.0 mm 0.01 in0.3 mm
02:30 AM 50.8°F10.4°C 47.7°F8.7°C 89% 4.6 mph N7.4 kmh N 6.9 mph11.1 kmh 30.24 in1024.0 mb - 0.00 in0.0 mm 0.01 in0.3 mm
02:40 AM 50.8°F10.4°C 47.7°F8.7°C 89% 6.9 mph NNE11.1 kmh NNE 9.2 mph14.8 kmh 30.24 in1024.0 mb - 0.00 in0.0 mm 0.01 in0.3 mm
02:50 AM 50.9°F10.5°C 47.8°F8.8°C 89% 4.6 mph NE7.4 kmh NE 8.1 mph13.0 kmh 30.24 in1024.0 mb - 0.00 in0.0 mm 0.01 in0.3 mm
03:00 AM 51.0°F10.6°C 47.6°F8.7°C 88% 4.6 mph N7.4 kmh N 5.8 mph9.3 kmh 30.24 in1024.0 mb - 0.00 in0.0 mm 0.01 in0.3 mm
03:10 AM 51.0°F10.6°C 47.9°F8.8°C 89% 5.8 mph N9.3 kmh N 8.1 mph13.0 kmh 30.24 in1024.0 mb - 0.00 in0.0 mm 0.01 in0.3 mm
03:20 AM 51.0°F10.6°C 47.6°F8.7°C 88% 5.8 mph NE9.3 kmh NE 9.2 mph14.8 kmh 30.23 in1023.7 mb - 0.00 in0.0 mm 0.01 in0.3 mm
03:30 AM 50.9°F10.5°C 47.8°F8.8°C 89% 6.9 mph NNE11.1 kmh NNE 10.4 mph16.7 kmh 30.23 in1023.7 mb - 0.00 in0.0 mm 0.01 in0.3 mm
03:40 AM 50.8°F10.4°C 47.7°F8.7°C 89% 6.9 mph NNE11.1 kmh NNE 8.1 mph13.0 kmh 30.23 in1023.7 mb - 0.00 in0.0 mm 0.01 in0.3 mm
03:50 AM 50.8°F10.4°C 47.7°F8.7°C 89% 6.9 mph NNE11.1 kmh NNE 8.1 mph13.0 kmh 30.23 in1023.7 mb - 0.00 in0.0 mm 0.01 in0.3 mm
04:00 AM 50.8°F10.4°C 47.4°F8.6°C 88% 5.8 mph NNE9.3 kmh NNE 9.2 mph14.8 kmh 30.23 in1023.7 mb - 0.00 in0.0 mm 0.01 in0.3 mm
04:10 AM 50.8°F10.4°C 47.4°F8.6°C 88% 5.8 mph N9.3 kmh N 6.9 mph11.1 kmh 30.23 in1023.7 mb - 0.00 in0.0 mm 0.01 in0.3 mm
04:20 AM 50.8°F10.4°C 47.4°F8.6°C 88% 8.1 mph N13.0 kmh N 10.4 mph16.7 kmh 30.23 in1023.7 mb - 0.00 in0.0 mm 0.01 in0.3 mm
04:30 AM 50.9°F10.5°C 47.5°F8.6°C 88% 5.8 mph N9.3 kmh N 11.5 mph18.5 kmh 30.24 in1024.0 mb - 0.00 in0.0 mm 0.01 in0.3 mm
04:40 AM 50.9°F10.5°C 47.2°F8.4°C 87% 5.8 mph NNE9.3 kmh NNE 8.1 mph13.0 kmh 30.24 in1024.0 mb - 0.00 in0.0 mm 0.01 in0.3 mm
04:50 AM 50.9°F10.5°C 47.2°F8.4°C 87% 5.8 mph N9.3 kmh N 9.2 mph14.8 kmh 30.25 in1024.4 mb - 0.00 in0.0 mm 0.01 in0.3 mm
05:00 AM 51.0°F10.6°C 46.9°F8.3°C 86% 2.3 mph N3.7 kmh N 6.9 mph11.1 kmh 30.25 in1024.4 mb - 0.00 in0.0 mm 0.01 in0.3 mm
05:10 AM 51.0°F10.6°C 47.0°F8.3°C 86% 3.5 mph N5.6 kmh N 8.1 mph13.0 kmh 30.25 in1024.4 mb - 0.00 in0.0 mm 0.01 in0.3 mm
05:20 AM 51.0°F10.6°C 47.0°F8.3°C 86% 3.5 mph N5.6 kmh N 5.8 mph9.3 kmh 30.25 in1024.4 mb - 0.00 in0.0 mm 0.01 in0.3 mm
05:30 AM 51.1°F10.6°C 47.0°F8.3°C 86% 3.5 mph N5.6 kmh N 5.8 mph9.3 kmh 30.26 in1024.7 mb - 0.00 in0.0 mm 0.01 in0.3 mm
05:40 AM 51.1°F10.6°C 47.1°F8.4°C 86% 3.5 mph N5.6 kmh N 4.6 mph7.4 kmh 30.26 in1024.7 mb - 0.00 in0.0 mm 0.01 in0.3 mm
05:50 AM 51.1°F10.6°C 47.1°F8.4°C 86% 2.3 mph N3.7 kmh N 3.5 mph5.6 kmh 30.27 in1025.1 mb - 0.00 in0.0 mm 0.01 in0.3 mm
06:00 AM 51.1°F10.6°C 47.1°F8.4°C 86% 4.6 mph NNE7.4 kmh NNE 5.8 mph9.3 kmh 30.26 in1024.7 mb - 0.00 in0.0 mm 0.01 in0.3 mm
06:10 AM 51.1°F10.6°C 47.1°F8.4°C 86% 4.6 mph NNE7.4 kmh NNE 6.9 mph11.1 kmh 30.27 in1025.1 mb - 0.00 in0.0 mm 0.01 in0.3 mm
06:20 AM 51.2°F10.7°C 46.8°F8.2°C 85% 4.6 mph NNE7.4 kmh NNE 4.6 mph7.4 kmh 30.27 in1025.1 mb - 0.00 in0.0 mm 0.01 in0.3 mm
06:30 AM 51.2°F10.7°C 46.9°F8.3°C 85% 5.8 mph N9.3 kmh N 9.2 mph14.8 kmh 30.26 in1024.7 mb - 0.00 in0.0 mm 0.01 in0.3 mm
06:40 AM 51.3°F10.7°C 46.9°F8.3°C 85% 5.8 mph NNE9.3 kmh NNE 8.1 mph13.0 kmh 30.26 in1024.7 mb - 0.00 in0.0 mm 0.01 in0.3 mm
06:50 AM 51.2°F10.7°C 46.9°F8.3°C 85% 6.9 mph NNE11.1 kmh NNE 11.5 mph18.5 kmh 30.26 in1024.7 mb - 0.00 in0.0 mm 0.01 in0.3 mm
07:00 AM 51.2°F10.7°C 46.8°F8.2°C 85% 4.6 mph NNE7.4 kmh NNE 9.2 mph14.8 kmh 30.27 in1025.1 mb - 0.00 in0.0 mm 0.01 in0.3 mm
07:10 AM 51.2°F10.7°C 46.8°F8.2°C 85% 4.6 mph NNE7.4 kmh NNE 6.9 mph11.1 kmh 30.27 in1025.1 mb - 0.00 in0.0 mm 0.01 in0.3 mm
07:20 AM 51.2°F10.7°C 46.8°F8.2°C 85% 4.6 mph NNE7.4 kmh NNE 6.9 mph11.1 kmh 30.27 in1025.1 mb - 0.00 in0.0 mm 0.01 in0.3 mm
07:30 AM 51.2°F10.7°C 46.8°F8.2°C 85% 4.6 mph NNE7.4 kmh NNE 9.2 mph14.8 kmh 30.28 in1025.4 mb - 0.00 in0.0 mm 0.01 in0.3 mm
07:40 AM 51.2°F10.7°C 46.6°F8.1°C 84% 3.5 mph NNE5.6 kmh NNE 4.6 mph7.4 kmh 30.29 in1025.7 mb - 0.00 in0.0 mm 0.01 in0.3 mm
07:50 AM 51.3°F10.7°C 47.0°F8.3°C 85% 5.8 mph NNE9.3 kmh NNE 8.1 mph13.0 kmh 30.29 in1025.7 mb - 0.00 in0.0 mm 0.01 in0.3 mm
08:00 AM 51.4°F10.8°C 46.7°F8.2°C 84% 5.8 mph N9.3 kmh N 9.2 mph14.8 kmh 30.29 in1025.7 mb - 0.00 in0.0 mm 0.01 in0.3 mm
08:10 AM 51.4°F10.8°C 46.7°F8.2°C 84% 4.6 mph NNE7.4 kmh NNE 8.1 mph13.0 kmh 30.30 in1026.1 mb - 0.00 in0.0 mm 0.01 in0.3 mm
08:20 AM 51.4°F10.8°C 46.7°F8.2°C 84% 5.8 mph NNE9.3 kmh NNE 6.9 mph11.1 kmh 30.30 in1026.1 mb - 0.00 in0.0 mm 0.01 in0.3 mm
08:30 AM 51.4°F10.8°C 46.7°F8.2°C 84% 6.9 mph NNE11.1 kmh NNE 8.1 mph13.0 kmh 30.30 in1026.1 mb - 0.00 in0.0 mm 0.01 in0.3 mm
08:40 AM 51.4°F10.8°C 46.7°F8.2°C 84% 4.6 mph NNE7.4 kmh NNE 8.1 mph13.0 kmh 30.30 in1026.1 mb - 0.00 in0.0 mm 0.01 in0.3 mm
08:50 AM 51.5°F10.8°C 46.8°F8.2°C 84% 4.6 mph NE7.4 kmh NE 9.2 mph14.8 kmh 30.30 in1026.1 mb - 0.00 in0.0 mm 0.01 in0.3 mm
09:00 AM 51.5°F10.8°C 46.5°F8.1°C 83% 5.8 mph NNE9.3 kmh NNE 6.9 mph11.1 kmh 30.31 in1026.4 mb - 0.00 in0.0 mm 0.01 in0.3 mm
09:10 AM 51.6°F10.9°C 46.3°F7.9°C 82% 3.5 mph NE5.6 kmh NE 4.6 mph7.4 kmh 30.31 in1026.4 mb - 0.00 in0.0 mm 0.01 in0.3 mm
09:20 AM 51.7°F10.9°C 46.4°F8.0°C 82% 5.8 mph NNE9.3 kmh NNE 8.1 mph13.0 kmh 30.31 in1026.4 mb - 0.00 in0.0 mm 0.01 in0.3 mm
09:30 AM 51.8°F11.0°C 46.5°F8.1°C 82% 5.8 mph NNE9.3 kmh NNE 9.2 mph14.8 kmh 30.31 in1026.4 mb - 0.00 in0.0 mm 0.01 in0.3 mm
09:40 AM 52.0°F11.1°C 46.3°F7.9°C 81% 8.1 mph NE13.0 kmh NE 12.7 mph20.4 kmh 30.31 in1026.4 mb - 0.00 in0.0 mm 0.01 in0.3 mm
09:50 AM 52.2°F11.2°C 46.5°F8.1°C 81% 6.9 mph NNE11.1 kmh NNE 11.5 mph18.5 kmh 30.32 in1026.8 mb - 0.00 in0.0 mm 0.01 in0.3 mm
10:00 AM 52.5°F11.4°C 46.8°F8.2°C 81% 4.6 mph NNE7.4 kmh NNE 9.2 mph14.8 kmh 30.32 in1026.8 mb - 0.00 in0.0 mm 0.01 in0.3 mm
10:10 AM 52.9°F11.6°C 46.5°F8.1°C 79% 5.8 mph NE9.3 kmh NE 11.5 mph18.5 kmh 30.32 in1026.8 mb - 0.00 in0.0 mm 0.01 in0.3 mm
10:20 AM 53.5°F11.9°C 47.1°F8.4°C 79% 5.8 mph NNE9.3 kmh NNE 9.2 mph14.8 kmh 30.32 in1026.8 mb - 0.00 in0.0 mm 0.01 in0.3 mm
10:30 AM 53.7°F12.1°C 46.3°F7.9°C 76% 5.8 mph NE9.3 kmh NE 6.9 mph11.1 kmh 30.33 in1027.1 mb - 0.00 in0.0 mm 0.01 in0.3 mm
10:40 AM 54.0°F12.2°C 46.6°F8.1°C 76% 4.6 mph NE7.4 kmh NE 6.9 mph11.1 kmh 30.34 in1027.4 mb - 0.00 in0.0 mm 0.01 in0.3 mm
10:50 AM 54.3°F12.4°C 46.9°F8.3°C 76% 3.5 mph NE5.6 kmh NE 5.8 mph9.3 kmh 30.35 in1027.8 mb - 0.00 in0.0 mm 0.01 in0.3 mm
11:00 AM 54.6°F12.6°C 46.8°F8.2°C 75% 2.3 mph NE3.7 kmh NE 5.8 mph9.3 kmh 30.35 in1027.8 mb - 0.00 in0.0 mm 0.01 in0.3 mm
11:10 AM 54.8°F12.7°C 46.7°F8.2°C 74% 4.6 mph NE7.4 kmh NE 5.8 mph9.3 kmh 30.35 in1027.8 mb - 0.00 in0.0 mm 0.01 in0.3 mm
11:20 AM 54.9°F12.7°C 46.8°F8.2°C 74% 6.9 mph ENE11.1 kmh ENE 12.7 mph20.4 kmh 30.34 in1027.4 mb - 0.00 in0.0 mm 0.01 in0.3 mm
11:30 AM 55.0°F12.8°C 46.1°F7.8°C 72% 6.9 mph ENE11.1 kmh ENE 12.7 mph20.4 kmh 30.34 in1027.4 mb - 0.00 in0.0 mm 0.01 in0.3 mm
11:40 AM 55.1°F12.8°C 46.2°F7.9°C 72% 5.8 mph NE9.3 kmh NE 5.8 mph9.3 kmh 30.34 in1027.4 mb - 0.00 in0.0 mm 0.01 in0.3 mm
11:50 AM 55.1°F12.8°C 46.2°F7.9°C 72% 8.1 mph E13.0 kmh E 13.8 mph22.2 kmh 30.34 in1027.4 mb - 0.00 in0.0 mm 0.01 in0.3 mm
12:00 PM 55.1°F12.8°C 45.1°F7.3°C 69% 8.1 mph ENE13.0 kmh ENE 13.8 mph22.2 kmh 30.33 in1027.1 mb - 0.00 in0.0 mm 0.01 in0.3 mm
12:10 PM 55.2°F12.9°C 45.6°F7.6°C 70% 5.8 mph ENE9.3 kmh ENE 8.1 mph13.0 kmh 30.34 in1027.4 mb - 0.00 in0.0 mm 0.01 in0.3 mm
12:20 PM 55.2°F12.9°C 46.0°F7.8°C 71% 4.6 mph ENE7.4 kmh ENE 6.9 mph11.1 kmh 30.34 in1027.4 mb - 0.00 in0.0 mm 0.01 in0.3 mm
12:30 PM 55.4°F13.0°C 45.8°F7.7°C 70% 4.6 mph NE7.4 kmh NE 6.9 mph11.1 kmh 30.34 in1027.4 mb - 0.00 in0.0 mm 0.01 in0.3 mm
12:40 PM 55.6°F13.1°C 46.0°F7.8°C 70% 8.1 mph ENE13.0 kmh ENE 13.8 mph22.2 kmh 30.33 in1027.1 mb - 0.00 in0.0 mm 0.01 in0.3 mm
12:50 PM 55.4°F13.0°C 45.4°F7.4°C 69% 4.6 mph NE7.4 kmh NE 6.9 mph11.1 kmh 30.34 in1027.4 mb - 0.00 in0.0 mm 0.01 in0.3 mm
01:00 PM 55.4°F13.0°C 45.0°F7.2°C 68% 6.9 mph NE11.1 kmh NE 8.1 mph13.0 kmh 30.33 in1027.1 mb - 0.00 in0.0 mm 0.01 in0.3 mm
01:10 PM 55.5°F13.1°C 45.5°F7.5°C 69% 3.5 mph NE5.6 kmh NE 9.2 mph14.8 kmh 30.32 in1026.8 mb - 0.00 in0.0 mm 0.01 in0.3 mm
01:20 PM 55.6°F13.1°C 45.5°F7.5°C 69% 3.5 mph NE5.6 kmh NE 3.5 mph5.6 kmh 30.32 in1026.8 mb - 0.00 in0.0 mm 0.01 in0.3 mm
01:30 PM 55.7°F13.2°C 45.7°F7.6°C 69% 4.6 mph NE7.4 kmh NE 4.6 mph7.4 kmh 30.32 in1026.8 mb - 0.00 in0.0 mm 0.01 in0.3 mm
01:40 PM 55.7°F13.2°C 45.3°F7.4°C 68% 2.3 mph NNE3.7 kmh NNE 6.9 mph11.1 kmh 30.33 in1027.1 mb - 0.00 in0.0 mm 0.01 in0.3 mm
01:50 PM 55.8°F13.2°C 46.2°F7.9°C 70% 2.3 mph NE3.7 kmh NE 5.8 mph9.3 kmh 30.32 in1026.8 mb - 0.00 in0.0 mm 0.01 in0.3 mm
02:00 PM 55.6°F13.1°C 46.7°F8.2°C 72% 3.5 mph NE5.6 kmh NE 4.6 mph7.4 kmh 30.31 in1026.4 mb - 0.00 in0.0 mm 0.01 in0.3 mm
02:10 PM 55.4°F13.0°C 46.9°F8.3°C 73% 2.3 mph NE3.7 kmh NE 5.8 mph9.3 kmh 30.31 in1026.4 mb - 0.00 in0.0 mm 0.01 in0.3 mm
02:20 PM 55.1°F12.8°C 47.3°F8.5°C 75% 1.2 mph NE1.9 kmh NE 3.5 mph5.6 kmh 30.30 in1026.1 mb - 0.00 in0.0 mm 0.01 in0.3 mm
02:30 PM 54.8°F12.7°C 47.8°F8.8°C 77% 2.3 mph NNE3.7 kmh NNE 3.5 mph5.6 kmh 30.31 in1026.4 mb - 0.01 in0.3 mm 0.02 in0.5 mm
02:40 PM 54.8°F12.7°C 48.4°F9.1°C 79% 1.2 mph N1.9 kmh N 3.5 mph5.6 kmh 30.32 in1026.8 mb - 0.01 in0.3 mm 0.02 in0.5 mm
02:50 PM 54.7°F12.6°C 48.6°F9.2°C 80% 1.2 mph N1.9 kmh N 1.2 mph1.9 kmh 30.33 in1027.1 mb - 0.00 in0.0 mm 0.02 in0.5 mm
03:00 PM 54.6°F12.6°C 49.2°F9.6°C 82% 1.2 mph NNW1.9 kmh NNW 2.3 mph3.7 kmh 30.35 in1027.8 mb - 0.00 in0.0 mm 0.02 in0.5 mm
03:10 PM 54.5°F12.5°C 49.1°F9.5°C 82% 2.3 mph NNW3.7 kmh NNW 3.5 mph5.6 kmh 30.35 in1027.8 mb - 0.02 in0.5 mm 0.04 in1.0 mm
03:20 PM 54.3°F12.4°C 49.6°F9.8°C 84% 3.5 mph N5.6 kmh N 5.8 mph9.3 kmh 30.34 in1027.4 mb - 0.02 in0.5 mm 0.06 in1.5 mm
03:30 PM 53.7°F12.1°C 49.3°F9.6°C 85% 3.5 mph 5.6 kmh 8.1 mph13.0 kmh 30.33 in1027.1 mb - 0.02 in0.5 mm 0.08 in2.0 mm
03:40 PM 53.1°F11.7°C 48.7°F9.3°C 85% 3.5 mph N5.6 kmh N 3.5 mph5.6 kmh 30.34 in1027.4 mb - 0.01 in0.3 mm 0.09 in2.3 mm
03:50 PM 52.7°F11.5°C 48.6°F9.2°C 86% 2.3 mph NNW3.7 kmh NNW 3.5 mph5.6 kmh 30.34 in1027.4 mb - 0.02 in0.5 mm 0.11 in2.8 mm
04:00 PM 52.9°F11.6°C 49.1°F9.5°C 87% 2.3 mph NW3.7 kmh NW 4.6 mph7.4 kmh 30.35 in1027.8 mb - 0.02 in0.5 mm 0.13 in3.3 mm
04:10 PM 53.0°F11.7°C 49.5°F9.7°C 88% 4.6 mph NW7.4 kmh NW 4.6 mph7.4 kmh 30.36 in1028.1 mb - 0.00 in0.0 mm 0.13 in3.3 mm
04:20 PM 52.8°F11.6°C 49.6°F9.8°C 89% 3.5 mph NW5.6 kmh NW 4.6 mph7.4 kmh 30.36 in1028.1 mb - 0.01 in0.3 mm 0.14 in3.6 mm
04:30 PM 52.5°F11.4°C 49.9°F9.9°C 91% 4.6 mph NNW7.4 kmh NNW 5.8 mph9.3 kmh 30.36 in1028.1 mb - 0.02 in0.5 mm 0.16 in4.1 mm
04:40 PM 52.1°F11.2°C 49.0°F9.4°C 89% 2.3 mph NW3.7 kmh NW 3.5 mph5.6 kmh 30.36 in1028.1 mb - 0.01 in0.3 mm 0.17 in4.3 mm
04:50 PM 51.8°F11.0°C 48.7°F9.3°C 89% 2.3 mph N3.7 kmh N 4.6 mph7.4 kmh 30.36 in1028.1 mb - 0.02 in0.5 mm 0.19 in4.8 mm
05:00 PM 51.7°F10.9°C 48.9°F9.4°C 90% 2.3 mph NW3.7 kmh NW 4.6 mph7.4 kmh 30.36 in1028.1 mb - 0.01 in0.3 mm 0.20 in5.1 mm
05:10 PM 51.7°F10.9°C 48.9°F9.4°C 90% 2.3 mph NW3.7 kmh NW 3.5 mph5.6 kmh 30.36 in1028.1 mb - 0.01 in0.3 mm 0.21 in5.3 mm
05:20 PM 51.7°F10.9°C 48.9°F9.4°C 90% 1.2 mph WNW1.9 kmh WNW 2.3 mph3.7 kmh 30.36 in1028.1 mb - 0.01 in0.3 mm 0.22 in5.6 mm
05:30 PM 51.6°F10.9°C 48.8°F9.3°C 90% 3.5 mph NW5.6 kmh NW 4.6 mph7.4 kmh 30.36 in1028.1 mb - 0.01 in0.3 mm 0.23 in5.8 mm
05:40 PM 51.5°F10.8°C 49.0°F9.4°C 91% 4.6 mph N7.4 kmh N 6.9 mph11.1 kmh 30.34 in1027.4 mb - 0.02 in0.5 mm 0.25 in6.4 mm
05:50 PM 51.4°F10.8°C 48.9°F9.4°C 91% 2.3 mph NNE3.7 kmh NNE 3.5 mph5.6 kmh 30.35 in1027.8 mb - 0.02 in0.5 mm 0.26 in6.6 mm
06:00 PM 51.4°F10.8°C 48.9°F9.4°C 91% 2.3 mph NNW3.7 kmh NNW 3.5 mph5.6 kmh 30.35 in1027.8 mb - 0.02 in0.5 mm 0.28 in7.1 mm
06:10 PM 51.4°F10.8°C 48.9°F9.4°C 91% 1.2 mph N1.9 kmh N 1.2 mph1.9 kmh 30.35 in1027.8 mb - 0.02 in0.5 mm 0.30 in7.6 mm
06:20 PM 51.3°F10.7°C 48.8°F9.3°C 91% 1.2 mph N1.9 kmh N 2.3 mph3.7 kmh 30.36 in1028.1 mb - 0.02 in0.5 mm 0.31 in7.9 mm
06:30 PM 51.3°F10.7°C 48.8°F9.3°C 91% 2.3 mph NNE3.7 kmh NNE 3.5 mph5.6 kmh 30.34 in1027.4 mb - 0.00 in0.0 mm 0.31 in7.9 mm
06:40 PM 51.2°F10.7°C 48.7°F9.3°C 91% 1.2 mph N1.9 kmh N 3.5 mph5.6 kmh 30.34 in1027.4 mb - 0.00 in0.0 mm 0.31 in7.9 mm
06:50 PM 51.2°F10.7°C 48.7°F9.3°C 91% 1.2 mph N1.9 kmh N 2.3 mph3.7 kmh 30.34 in1027.4 mb - 0.01 in0.3 mm 0.32 in8.1 mm
07:00 PM 51.3°F10.7°C 48.8°F9.3°C 91% Calm Calm 1.2 mph1.9 kmh 30.35 in1027.8 mb - 0.01 in0.3 mm 0.32 in8.1 mm
07:10 PM 51.4°F10.8°C 48.9°F9.4°C 91% 2.3 mph NW3.7 kmh NW 2.3 mph3.7 kmh 30.35 in1027.8 mb - 0.00 in0.0 mm 0.32 in8.1 mm
07:20 PM 51.5°F10.8°C 49.0°F9.4°C 91% Calm Calm 2.3 mph3.7 kmh 30.35 in1027.8 mb - 0.00 in0.0 mm 0.32 in8.1 mm
07:30 PM 51.7°F10.9°C 49.4°F9.7°C 92% Calm Calm -- 30.36 in1028.1 mb - 0.00 in0.0 mm 0.32 in8.1 mm
07:40 PM 51.9°F11.1°C 49.6°F9.8°C 92% Calm Calm -- 30.36 in1028.1 mb - 0.00 in0.0 mm 0.32 in8.1 mm
07:50 PM 52.0°F11.1°C 49.7°F9.8°C 92% 1.2 mph WSW1.9 kmh WSW 4.6 mph7.4 kmh 30.36 in1028.1 mb - 0.00 in0.0 mm 0.32 in8.1 mm
08:00 PM 51.9°F11.1°C 49.6°F9.8°C 92% 1.2 mph WNW1.9 kmh WNW 2.3 mph3.7 kmh 30.36 in1028.1 mb - 0.00 in0.0 mm 0.32 in8.1 mm
08:10 PM 51.9°F11.1°C 49.6°F9.8°C 92% Calm Calm 2.3 mph3.7 kmh 30.36 in1028.1 mb - 0.01 in0.3 mm 0.33 in8.4 mm
08:20 PM 51.9°F11.1°C 49.6°F9.8°C 92% 1.2 mph N1.9 kmh N 2.3 mph3.7 kmh 30.36 in1028.1 mb - 0.00 in0.0 mm 0.33 in8.4 mm
08:30 PM 51.9°F11.1°C 49.7°F9.8°C 92% Calm Calm 2.3 mph3.7 kmh 30.36 in1028.1 mb - 0.00 in0.0 mm 0.33 in8.4 mm
08:40 PM 51.9°F11.1°C 49.7°F9.8°C 92% Calm Calm 1.2 mph1.9 kmh 30.36 in1028.1 mb - 0.00 in0.0 mm 0.33 in8.4 mm
08:50 PM 52.0°F11.1°C 49.7°F9.8°C 92% Calm Calm -- 30.37 in1028.4 mb - 0.00 in0.0 mm 0.33 in8.4 mm
09:00 PM 52.0°F11.1°C 49.8°F9.9°C 92% 1.2 mph WSW1.9 kmh WSW 3.5 mph5.6 kmh 30.37 in1028.4 mb - 0.00 in0.0 mm 0.33 in8.4 mm
09:10 PM 52.1°F11.2°C 49.9°F9.9°C 92% 1.2 mph WSW1.9 kmh WSW 2.3 mph3.7 kmh 30.37 in1028.4 mb - 0.01 in0.3 mm 0.34 in8.6 mm
09:20 PM 52.1°F11.2°C 49.9°F9.9°C 92% 2.3 mph N3.7 kmh N 2.3 mph3.7 kmh 30.37 in1028.4 mb - 0.00 in0.0 mm 0.34 in8.6 mm
09:30 PM 52.2°F11.2°C 49.9°F9.9°C 92% Calm Calm 1.2 mph1.9 kmh 30.37 in1028.4 mb - 0.01 in0.3 mm 0.35 in8.9 mm
09:40 PM 52.3°F11.3°C 50.0°F10.0°C 92% Calm Calm -- 30.37 in1028.4 mb - 0.00 in0.0 mm 0.35 in8.9 mm
09:50 PM 52.3°F11.3°C 50.1°F10.1°C 92% Calm Calm 1.2 mph1.9 kmh 30.37 in1028.4 mb - 0.00 in0.0 mm 0.35 in8.9 mm
10:00 PM 52.4°F11.3°C 50.1°F10.1°C 92% 1.2 mph W1.9 kmh W 2.3 mph3.7 kmh 30.37 in1028.4 mb - 0.01 in0.3 mm 0.36 in9.1 mm
10:10 PM 52.5°F11.4°C 50.2°F10.1°C 92% 2.3 mph NW3.7 kmh NW 3.5 mph5.6 kmh 30.36 in1028.1 mb - 0.00 in0.0 mm 0.36 in9.1 mm
10:20 PM 52.4°F11.3°C 50.2°F10.1°C 92% 2.3 mph N3.7 kmh N 5.8 mph9.3 kmh 30.36 in1028.1 mb - 0.00 in0.0 mm 0.36 in9.1 mm
10:30 PM 52.4°F11.3°C 50.1°F10.1°C 92% Calm Calm 1.2 mph1.9 kmh 30.36 in1028.1 mb - 0.00 in0.0 mm 0.36 in9.1 mm
10:40 PM 52.6°F11.4°C 50.3°F10.2°C 92% Calm Calm -- 30.36 in1028.1 mb - 0.00 in0.0 mm 0.36 in9.1 mm
10:50 PM 52.6°F11.4°C 50.4°F10.2°C 92% Calm Calm 1.2 mph1.9 kmh 30.36 in1028.1 mb - 0.00 in0.0 mm 0.36 in9.1 mm
11:00 PM 52.7°F11.5°C 50.4°F10.2°C 92% 1.2 mph N1.9 kmh N 2.3 mph3.7 kmh 30.36 in1028.1 mb - 0.00 in0.0 mm 0.36 in9.1 mm
11:10 PM 52.8°F11.6°C 50.5°F10.3°C 92% 1.2 mph N1.9 kmh N 2.3 mph3.7 kmh 30.36 in1028.1 mb - 0.00 in0.0 mm 0.36 in9.1 mm
11:20 PM 52.9°F11.6°C 50.6°F10.3°C 92% Calm Calm 2.3 mph3.7 kmh 30.36 in1028.1 mb - 0.00 in0.0 mm 0.36 in9.1 mm
11:30 PM 53.0°F11.7°C 50.7°F10.4°C 92% 1.2 mph N1.9 kmh N 3.5 mph5.6 kmh 30.36 in1028.1 mb - 0.00 in0.0 mm 0.36 in9.1 mm
11:40 PM 53.0°F11.7°C 50.7°F10.4°C 92% 1.2 mph NNW1.9 kmh NNW 2.3 mph3.7 kmh 30.36 in1028.1 mb - 0.00 in0.0 mm 0.36 in9.1 mm
11:50 PM 52.9°F11.6°C 50.7°F10.4°C 92% 2.3 mph NNW3.7 kmh NNW 4.6 mph7.4 kmh 30.36 in1028.1 mb - 0.00 in0.0 mm 0.36 in9.1 mm